PWSweather.com
Personal Weather Stations
Station Observations
WAIROAHB
Wairoa, Northern Hawkes Bay -NZ 4108

WairoaNorthern Hawkes Bay -NZ 4108

Lat: -39.04516934, Lon: 177.4263989

Elevation: 156

Station Type: WS3083

http://wairoa.net/weather/index.htm

High Low Average
Temperature 71.6°F22.0°C 51.6°F10.9°C 59.1°F15.1°C
Dew Point 55.4°F13.0°C 44.7°F7.1°C 49.9°F9.9°C
Winds 20.6 mph 33.2 kmh Calm Calm 8.0 mph WSW12.9 kmh WSW
Wind Gusts 32.0 mph51.5 kmh -- 15.0 mph24.1 kmh
Humidity 97% 38% 73%
Pressure 30.03 in1016.9 mb 29.74 in1007.1 mb -
Precipitation 0.25 in6.4 mm - -
Hour Temp Dew Point Humidity Winds Wind Gusts Pressure Precip Precip Rate Daily Precip Total
12:00 AM 57.9°F14.4°C 46.2°F7.9°C 65% 3.1 mph NNW5.0 kmh NNW 8.3 mph13.4 kmh 29.78 in1008.5 mb 0.00 in0.0 mm 0.00 in0.0 mm 0.00 in0.0 mm
12:10 AM 57.6°F14.2°C 46.3°F7.9°C 66% 2.2 mph NE3.5 kmh NE 7.6 mph12.2 kmh 29.78 in1008.5 mb 0.00 in0.0 mm 0.00 in0.0 mm 0.00 in0.0 mm
12:20 AM 57.0°F13.9°C 46.6°F8.1°C 68% 1.6 mph N2.6 kmh N 3.1 mph5.0 kmh 29.78 in1008.5 mb 0.00 in0.0 mm 0.00 in0.0 mm 0.00 in0.0 mm
12:30 AM 56.7°F13.7°C 46.6°F8.1°C 69% 3.1 mph NNW5.0 kmh NNW 5.4 mph8.7 kmh 29.77 in1008.1 mb 0.00 in0.0 mm 0.00 in0.0 mm 0.00 in0.0 mm
12:40 AM 57.0°F13.9°C 47.0°F8.3°C 69% 3.1 mph NNE5.0 kmh NNE 6.0 mph9.7 kmh 29.77 in1008.1 mb 0.00 in0.0 mm 0.00 in0.0 mm 0.00 in0.0 mm
12:50 AM 57.2°F14.0°C 46.7°F8.2°C 68% 4.5 mph N7.2 kmh N 6.0 mph9.7 kmh 29.77 in1008.1 mb 0.00 in0.0 mm 0.00 in0.0 mm 0.00 in0.0 mm
01:00 AM 57.6°F14.2°C 47.1°F8.4°C 68% 4.5 mph NNW7.2 kmh NNW 6.9 mph11.1 kmh 29.77 in1008.1 mb 0.00 in0.0 mm 0.00 in0.0 mm 0.00 in0.0 mm
01:10 AM 57.6°F14.2°C 47.1°F8.4°C 68% 3.8 mph N6.1 kmh N 9.2 mph14.8 kmh 29.77 in1008.1 mb 0.00 in0.0 mm 0.00 in0.0 mm 0.00 in0.0 mm
01:20 AM 57.4°F14.1°C 46.9°F8.3°C 68% 3.1 mph N5.0 kmh N 6.9 mph11.1 kmh 29.77 in1008.1 mb 0.00 in0.0 mm 0.00 in0.0 mm 0.00 in0.0 mm
01:30 AM 56.7°F13.7°C 47.0°F8.3°C 70% 0.7 mph N1.1 kmh N 4.5 mph7.2 kmh 29.77 in1008.1 mb 0.00 in0.0 mm 0.00 in0.0 mm 0.00 in0.0 mm
01:40 AM 55.8°F13.2°C 46.9°F8.3°C 72% Calm Calm 2.2 mph3.5 kmh 29.77 in1008.1 mb 0.00 in0.0 mm 0.00 in0.0 mm 0.00 in0.0 mm
01:50 AM 54.7°F12.6°C 46.6°F8.1°C 74% Calm Calm -- 29.77 in1008.1 mb 0.00 in0.0 mm 0.00 in0.0 mm 0.00 in0.0 mm
02:00 AM 54.0°F12.2°C 45.9°F7.7°C 74% Calm Calm -- 29.77 in1008.1 mb 0.00 in0.0 mm 0.00 in0.0 mm 0.00 in0.0 mm
02:10 AM 54.0°F12.2°C 46.2°F7.9°C 75% Calm Calm -- 29.77 in1008.1 mb 0.00 in0.0 mm 0.00 in0.0 mm 0.00 in0.0 mm
02:20 AM 54.0°F12.2°C 46.9°F8.3°C 77% Calm Calm -- 29.76 in1007.8 mb 0.00 in0.0 mm 0.00 in0.0 mm 0.00 in0.0 mm
02:30 AM 53.6°F12.0°C 47.3°F8.5°C 79% 1.6 mph NNW2.6 kmh NNW 3.1 mph5.0 kmh 29.76 in1007.8 mb 0.00 in0.0 mm 0.00 in0.0 mm 0.00 in0.0 mm
02:40 AM 53.2°F11.8°C 47.6°F8.7°C 81% 1.6 mph N2.6 kmh N 3.1 mph5.0 kmh 29.76 in1007.8 mb 0.00 in0.0 mm 0.00 in0.0 mm 0.00 in0.0 mm
02:50 AM 54.0°F12.2°C 47.9°F8.8°C 80% 1.6 mph N2.6 kmh N 3.1 mph5.0 kmh 29.76 in1007.8 mb 0.00 in0.0 mm 0.00 in0.0 mm 0.00 in0.0 mm
03:00 AM 54.1°F12.3°C 47.8°F8.8°C 79% 1.6 mph N2.6 kmh N 3.1 mph5.0 kmh 29.76 in1007.8 mb 0.00 in0.0 mm 0.00 in0.0 mm 0.00 in0.0 mm
03:10 AM 53.1°F11.7°C 47.4°F8.6°C 81% 2.2 mph NW3.5 kmh NW 3.1 mph5.0 kmh 29.76 in1007.8 mb 0.00 in0.0 mm 0.00 in0.0 mm 0.00 in0.0 mm
03:20 AM 52.3°F11.3°C 47.0°F8.3°C 82% Calm Calm 3.8 mph6.1 kmh 29.75 in1007.5 mb 0.00 in0.0 mm 0.00 in0.0 mm 0.00 in0.0 mm
03:30 AM 52.0°F11.1°C 46.7°F8.2°C 82% Calm Calm -- 29.75 in1007.5 mb 0.00 in0.0 mm 0.00 in0.0 mm 0.00 in0.0 mm
03:40 AM 52.3°F11.3°C 47.3°F8.5°C 83% 2.2 mph NW3.5 kmh NW 3.8 mph6.1 kmh 29.76 in1007.8 mb 0.00 in0.0 mm 0.00 in0.0 mm 0.00 in0.0 mm
03:50 AM 52.0°F11.1°C 47.3°F8.5°C 84% 2.2 mph NW3.5 kmh NW 4.5 mph7.2 kmh 29.75 in1007.5 mb 0.00 in0.0 mm 0.00 in0.0 mm 0.00 in0.0 mm
04:00 AM 52.0°F11.1°C 47.6°F8.7°C 85% 2.2 mph NW3.5 kmh NW 4.5 mph7.2 kmh 29.75 in1007.5 mb 0.00 in0.0 mm 0.00 in0.0 mm 0.00 in0.0 mm
04:10 AM 52.0°F11.1°C 47.6°F8.7°C 85% 1.6 mph NW2.6 kmh NW 3.8 mph6.1 kmh 29.76 in1007.8 mb 0.00 in0.0 mm 0.00 in0.0 mm 0.00 in0.0 mm
04:20 AM 51.8°F11.0°C 47.4°F8.6°C 85% 1.6 mph NNW2.6 kmh NNW 3.1 mph5.0 kmh 29.76 in1007.8 mb 0.00 in0.0 mm 0.00 in0.0 mm 0.00 in0.0 mm
04:30 AM 51.6°F10.9°C 47.9°F8.8°C 87% 2.2 mph N3.5 kmh N 3.8 mph6.1 kmh 29.76 in1007.8 mb 0.00 in0.0 mm 0.00 in0.0 mm 0.00 in0.0 mm
04:40 AM 51.6°F10.9°C 48.5°F9.2°C 89% 3.1 mph NNW5.0 kmh NNW 3.8 mph6.1 kmh 29.75 in1007.5 mb 0.00 in0.0 mm 0.00 in0.0 mm 0.00 in0.0 mm
04:50 AM 51.8°F11.0°C 48.4°F9.1°C 88% 0.7 mph NNW1.1 kmh NNW 3.8 mph6.1 kmh 29.75 in1007.5 mb 0.00 in0.0 mm 0.00 in0.0 mm 0.00 in0.0 mm
05:00 AM 52.7°F11.5°C 49.3°F9.6°C 88% 0.7 mph NW1.1 kmh NW 3.1 mph5.0 kmh 29.76 in1007.8 mb 0.00 in0.0 mm 0.00 in0.0 mm 0.00 in0.0 mm
05:10 AM 52.7°F11.5°C 48.6°F9.2°C 86% 2.2 mph NNW3.5 kmh NNW 4.5 mph7.2 kmh 29.76 in1007.8 mb 0.00 in0.0 mm 0.00 in0.0 mm 0.00 in0.0 mm
05:20 AM 54.0°F12.2°C 49.6°F9.8°C 85% 0.7 mph NW1.1 kmh NW 3.8 mph6.1 kmh 29.75 in1007.5 mb 0.00 in0.0 mm 0.00 in0.0 mm 0.00 in0.0 mm
05:30 AM 55.9°F13.3°C 50.5°F10.3°C 82% 3.1 mph NW5.0 kmh NW 4.5 mph7.2 kmh 29.75 in1007.5 mb 0.00 in0.0 mm 0.00 in0.0 mm 0.00 in0.0 mm
05:40 AM 55.2°F12.9°C 49.5°F9.7°C 81% 3.1 mph NW5.0 kmh NW 4.5 mph7.2 kmh 29.76 in1007.8 mb 0.00 in0.0 mm 0.00 in0.0 mm 0.00 in0.0 mm
05:50 AM 55.0°F12.8°C 50.0°F10.0°C 83% 3.1 mph NNW5.0 kmh NNW 6.0 mph9.7 kmh 29.76 in1007.8 mb 0.00 in0.0 mm 0.00 in0.0 mm 0.00 in0.0 mm
06:00 AM 56.5°F13.6°C 50.7°F10.4°C 81% 3.1 mph NW5.0 kmh NW 4.5 mph7.2 kmh 29.76 in1007.8 mb 0.00 in0.0 mm 0.00 in0.0 mm 0.00 in0.0 mm
06:10 AM 58.1°F14.5°C 51.3°F10.7°C 78% 5.4 mph NW8.7 kmh NW 6.0 mph9.7 kmh 29.76 in1007.8 mb 0.00 in0.0 mm 0.00 in0.0 mm 0.00 in0.0 mm
06:20 AM 59.7°F15.4°C 51.1°F10.6°C 73% 3.1 mph NNW5.0 kmh NNW 8.3 mph13.4 kmh 29.76 in1007.8 mb 0.00 in0.0 mm 0.00 in0.0 mm 0.00 in0.0 mm
06:30 AM 60.6°F15.9°C 51.2°F10.7°C 71% 6.9 mph N11.1 kmh N 9.2 mph14.8 kmh 29.76 in1007.8 mb 0.00 in0.0 mm 0.00 in0.0 mm 0.00 in0.0 mm
06:40 AM 61.5°F16.4°C 50.9°F10.5°C 68% 5.4 mph NNW8.7 kmh NNW 9.2 mph14.8 kmh 29.76 in1007.8 mb 0.00 in0.0 mm 0.00 in0.0 mm 0.00 in0.0 mm
06:50 AM 61.5°F16.4°C 50.1°F10.1°C 66% 5.4 mph N8.7 kmh N 9.2 mph14.8 kmh 29.76 in1007.8 mb 0.00 in0.0 mm 0.00 in0.0 mm 0.00 in0.0 mm
07:00 AM 61.9°F16.6°C 49.6°F9.8°C 64% 6.0 mph NNW9.7 kmh NNW 9.8 mph15.8 kmh 29.77 in1008.1 mb 0.00 in0.0 mm 0.00 in0.0 mm 0.00 in0.0 mm
07:10 AM 63.7°F17.6°C 50.4°F10.2°C 62% 5.4 mph NNW8.7 kmh NNW 9.2 mph14.8 kmh 29.77 in1008.1 mb 0.00 in0.0 mm 0.00 in0.0 mm 0.00 in0.0 mm
07:20 AM 64.4°F18.0°C 48.9°F9.4°C 57% 6.0 mph N9.7 kmh N 9.2 mph14.8 kmh 29.77 in1008.1 mb 0.00 in0.0 mm 0.00 in0.0 mm 0.00 in0.0 mm
07:30 AM 64.9°F18.3°C 48.9°F9.4°C 56% 3.8 mph NW6.1 kmh NW 10.7 mph17.2 kmh 29.77 in1008.1 mb 0.00 in0.0 mm 0.00 in0.0 mm 0.00 in0.0 mm
07:40 AM 65.1°F18.4°C 49.5°F9.7°C 57% 6.0 mph NW9.7 kmh NW 9.2 mph14.8 kmh 29.77 in1008.1 mb 0.00 in0.0 mm 0.00 in0.0 mm 0.00 in0.0 mm
07:50 AM 65.8°F18.8°C 47.2°F8.4°C 51% 5.4 mph NNW8.7 kmh NNW 9.8 mph15.8 kmh 29.78 in1008.5 mb 0.00 in0.0 mm 0.00 in0.0 mm 0.00 in0.0 mm
08:00 AM 66.0°F18.9°C 47.4°F8.6°C 51% 8.3 mph NW13.4 kmh NW 15.9 mph25.6 kmh 29.78 in1008.5 mb 0.00 in0.0 mm 0.00 in0.0 mm 0.00 in0.0 mm
08:10 AM 65.1°F18.4°C 47.1°F8.4°C 52% 6.9 mph NW11.1 kmh NW 13.6 mph21.9 kmh 29.78 in1008.5 mb 0.00 in0.0 mm 0.00 in0.0 mm 0.00 in0.0 mm
08:20 AM 64.4°F18.0°C 47.4°F8.6°C 54% 3.8 mph NNW6.1 kmh NNW 12.1 mph19.5 kmh 29.78 in1008.5 mb 0.00 in0.0 mm 0.00 in0.0 mm 0.00 in0.0 mm
08:30 AM 65.5°F18.6°C 46.9°F8.3°C 51% 8.3 mph NW13.4 kmh NW 13.0 mph20.9 kmh 29.78 in1008.5 mb 0.00 in0.0 mm 0.00 in0.0 mm 0.00 in0.0 mm
08:40 AM 65.1°F18.4°C 46.0°F7.8°C 50% 9.2 mph NW14.8 kmh NW 15.2 mph24.5 kmh 29.78 in1008.5 mb 0.00 in0.0 mm 0.00 in0.0 mm 0.00 in0.0 mm
08:50 AM 66.0°F18.9°C 45.8°F7.7°C 48% 10.7 mph NNW17.2 kmh NNW 16.8 mph27.0 kmh 29.77 in1008.1 mb 0.00 in0.0 mm 0.00 in0.0 mm 0.00 in0.0 mm
09:00 AM 66.2°F19.0°C 46.0°F7.8°C 48% 6.9 mph NW11.1 kmh NW 15.9 mph25.6 kmh 29.77 in1008.1 mb 0.00 in0.0 mm 0.00 in0.0 mm 0.00 in0.0 mm
09:10 AM 66.6°F19.2°C 46.8°F8.2°C 49% 6.0 mph NNW9.7 kmh NNW 13.6 mph21.9 kmh 29.78 in1008.5 mb 0.00 in0.0 mm 0.00 in0.0 mm 0.00 in0.0 mm
09:20 AM 67.8°F19.9°C 46.9°F8.3°C 47% 8.3 mph NNW13.4 kmh NNW 13.6 mph21.9 kmh 29.77 in1008.1 mb 0.00 in0.0 mm 0.00 in0.0 mm 0.00 in0.0 mm
09:30 AM 68.0°F20.0°C 47.6°F8.7°C 48% 9.2 mph NW14.8 kmh NW 14.5 mph23.3 kmh 29.77 in1008.1 mb 0.00 in0.0 mm 0.00 in0.0 mm 0.00 in0.0 mm
09:40 AM 68.5°F20.3°C 47.5°F8.6°C 47% 12.1 mph NNW19.5 kmh NNW 16.8 mph27.0 kmh 29.77 in1008.1 mb 0.00 in0.0 mm 0.00 in0.0 mm 0.00 in0.0 mm
09:50 AM 65.5°F18.6°C 46.4°F8.0°C 50% 3.1 mph NW5.0 kmh NW 16.8 mph27.0 kmh 29.77 in1008.1 mb 0.00 in0.0 mm 0.00 in0.0 mm 0.00 in0.0 mm
10:00 AM 66.9°F19.4°C 47.7°F8.7°C 50% 4.5 mph NNW7.2 kmh NNW 12.1 mph19.5 kmh 29.77 in1008.1 mb 0.00 in0.0 mm 0.00 in0.0 mm 0.00 in0.0 mm
10:10 AM 67.1°F19.5°C 46.8°F8.2°C 48% 6.9 mph NW11.1 kmh NW 13.6 mph21.9 kmh 29.76 in1007.8 mb 0.00 in0.0 mm 0.00 in0.0 mm 0.00 in0.0 mm
10:20 AM 66.2°F19.0°C 46.0°F7.8°C 48% 7.6 mph NW12.2 kmh NW 14.5 mph23.3 kmh 29.77 in1008.1 mb 0.00 in0.0 mm 0.00 in0.0 mm 0.00 in0.0 mm
10:30 AM 68.4°F20.2°C 46.2°F7.9°C 45% 6.9 mph NW11.1 kmh NW 13.6 mph21.9 kmh 29.76 in1007.8 mb 0.00 in0.0 mm 0.00 in0.0 mm 0.00 in0.0 mm
10:40 AM 68.5°F20.3°C 45.8°F7.7°C 44% 4.5 mph NW7.2 kmh NW 12.1 mph19.5 kmh 29.76 in1007.8 mb 0.00 in0.0 mm 0.00 in0.0 mm 0.00 in0.0 mm
10:50 AM 67.3°F19.6°C 45.8°F7.7°C 46% 4.5 mph WNW7.2 kmh WNW 10.7 mph17.2 kmh 29.76 in1007.8 mb 0.00 in0.0 mm 0.00 in0.0 mm 0.00 in0.0 mm
11:00 AM 70.7°F21.5°C 47.7°F8.7°C 44% 6.0 mph W9.7 kmh W 7.6 mph12.2 kmh 29.76 in1007.8 mb 0.00 in0.0 mm 0.00 in0.0 mm 0.00 in0.0 mm
11:10 AM 71.1°F21.7°C 47.5°F8.6°C 43% 3.1 mph NNW5.0 kmh NNW 9.2 mph14.8 kmh 29.75 in1007.5 mb 0.00 in0.0 mm 0.00 in0.0 mm 0.00 in0.0 mm
11:20 AM 71.6°F22.0°C 44.7°F7.1°C 38% 1.6 mph NW2.6 kmh NW 6.0 mph9.7 kmh 29.75 in1007.5 mb 0.00 in0.0 mm 0.00 in0.0 mm 0.00 in0.0 mm
11:30 AM 70.0°F21.1°C 47.1°F8.4°C 44% 5.4 mph WSW8.7 kmh WSW 10.7 mph17.2 kmh 29.74 in1007.1 mb 0.00 in0.0 mm 0.00 in0.0 mm 0.00 in0.0 mm
11:40 AM 70.3°F21.3°C 48.0°F8.9°C 45% 6.9 mph WSW11.1 kmh WSW 13.0 mph20.9 kmh 29.75 in1007.5 mb 0.00 in0.0 mm 0.00 in0.0 mm 0.00 in0.0 mm
11:50 AM 66.9°F19.4°C 49.3°F9.6°C 53% 8.3 mph WSW13.4 kmh WSW 14.5 mph23.3 kmh 29.75 in1007.5 mb 0.00 in0.0 mm 0.00 in0.0 mm 0.00 in0.0 mm
12:00 PM 64.4°F18.0°C 47.9°F8.8°C 55% 11.4 mph WSW18.3 kmh WSW 20.6 mph33.2 kmh 29.76 in1007.8 mb 0.00 in0.0 mm 0.00 in0.0 mm 0.00 in0.0 mm
12:10 PM 61.3°F16.3°C 50.7°F10.4°C 68% 2.2 mph SW3.5 kmh SW 15.9 mph25.6 kmh 29.76 in1007.8 mb 0.01 in0.3 mm 0.06 in1.5 mm 0.01 in0.3 mm
12:20 PM 62.1°F16.7°C 53.3°F11.8°C 73% 6.0 mph E9.7 kmh E 9.8 mph15.8 kmh 29.76 in1007.8 mb 0.01 in0.3 mm 0.00 in0.0 mm 0.01 in0.3 mm
12:30 PM 64.9°F18.3°C 52.9°F11.6°C 65% 6.0 mph W9.7 kmh W 9.8 mph15.8 kmh 29.76 in1007.8 mb 0.01 in0.3 mm 0.00 in0.0 mm 0.01 in0.3 mm
12:40 PM 64.6°F18.1°C 51.3°F10.7°C 62% 8.3 mph NW13.4 kmh NW 11.4 mph18.3 kmh 29.77 in1008.1 mb 0.01 in0.3 mm 0.00 in0.0 mm 0.01 in0.3 mm
12:50 PM 63.7°F17.6°C 50.9°F10.5°C 63% 6.0 mph NW9.7 kmh NW 12.1 mph19.5 kmh 29.77 in1008.1 mb 0.01 in0.3 mm 0.00 in0.0 mm 0.01 in0.3 mm
01:00 PM 63.5°F17.5°C 51.1°F10.6°C 64% 6.9 mph SW11.1 kmh SW 13.6 mph21.9 kmh 29.77 in1008.1 mb 0.01 in0.3 mm 0.00 in0.0 mm 0.01 in0.3 mm
01:10 PM 62.8°F17.1°C 53.6°F12.0°C 72% 14.5 mph WNW23.3 kmh WNW 22.1 mph35.6 kmh 29.78 in1008.5 mb 0.00 in0.0 mm 0.00 in0.0 mm 0.01 in0.3 mm
01:20 PM 59.7°F15.4°C 55.2°F12.9°C 85% 17.4 mph W28.0 kmh W 27.3 mph43.9 kmh 29.78 in1008.5 mb 0.00 in0.0 mm 0.00 in0.0 mm 0.01 in0.3 mm
01:30 PM 58.8°F14.9°C 55.3°F12.9°C 88% 14.5 mph W23.3 kmh W 32.0 mph51.5 kmh 29.79 in1008.8 mb 0.00 in0.0 mm 0.00 in0.0 mm 0.01 in0.3 mm
01:40 PM 58.5°F14.7°C 54.6°F12.6°C 87% 20.6 mph WSW33.2 kmh WSW 31.1 mph50.1 kmh 29.79 in1008.8 mb 0.00 in0.0 mm 0.00 in0.0 mm 0.01 in0.3 mm
01:50 PM 57.7°F14.3°C 54.2°F12.3°C 88% 17.4 mph SW28.0 kmh SW 27.3 mph43.9 kmh 29.80 in1009.1 mb 0.00 in0.0 mm 0.00 in0.0 mm 0.01 in0.3 mm
02:00 PM 56.8°F13.8°C 54.3°F12.4°C 91% 20.6 mph WSW33.2 kmh WSW 26.6 mph42.8 kmh 29.81 in1009.5 mb 0.01 in0.3 mm 0.01 in0.3 mm 0.02 in0.5 mm
02:10 PM 57.0°F13.9°C 54.7°F12.6°C 92% 13.6 mph SW21.9 kmh SW 26.6 mph42.8 kmh 29.82 in1009.8 mb 0.01 in0.3 mm 0.00 in0.0 mm 0.02 in0.5 mm
02:20 PM 56.8°F13.8°C 53.9°F12.2°C 90% 12.1 mph WSW19.5 kmh WSW 22.8 mph36.7 kmh 29.82 in1009.8 mb 0.01 in0.3 mm 0.00 in0.0 mm 0.02 in0.5 mm
02:30 PM 57.2°F14.0°C 54.3°F12.4°C 90% 18.3 mph SW29.5 kmh SW 25.1 mph40.4 kmh 29.82 in1009.8 mb 0.02 in0.5 mm 0.06 in1.5 mm 0.04 in1.0 mm
02:40 PM 57.6°F14.2°C 53.7°F12.1°C 87% 13.0 mph SW20.9 kmh SW 25.1 mph40.4 kmh 29.82 in1009.8 mb 0.02 in0.5 mm 0.00 in0.0 mm 0.04 in1.0 mm
02:50 PM 58.5°F14.7°C 54.0°F12.2°C 85% 11.4 mph WSW18.3 kmh WSW 21.3 mph34.3 kmh 29.82 in1009.8 mb 0.02 in0.5 mm 0.00 in0.0 mm 0.04 in1.0 mm
03:00 PM 58.8°F14.9°C 54.3°F12.4°C 85% 9.8 mph SW15.8 kmh SW 20.6 mph33.2 kmh 29.83 in1010.2 mb 0.01 in0.3 mm 0.00 in0.0 mm 0.04 in1.0 mm
03:10 PM 59.2°F15.1°C 54.7°F12.6°C 85% 14.5 mph WSW23.3 kmh WSW 19.7 mph31.7 kmh 29.83 in1010.2 mb 0.01 in0.3 mm 0.00 in0.0 mm 0.04 in1.0 mm
03:20 PM 59.0°F15.0°C 54.5°F12.5°C 85% 7.6 mph SW12.2 kmh SW 21.3 mph34.3 kmh 29.83 in1010.2 mb 0.01 in0.3 mm 0.00 in0.0 mm 0.04 in1.0 mm
03:30 PM 59.5°F15.3°C 54.7°F12.6°C 84% 14.5 mph WSW23.3 kmh WSW 21.3 mph34.3 kmh 29.83 in1010.2 mb 0.00 in0.0 mm 0.00 in0.0 mm 0.04 in1.0 mm
03:40 PM 59.5°F15.3°C 54.7°F12.6°C 84% 11.4 mph SW18.3 kmh SW 21.3 mph34.3 kmh 29.83 in1010.2 mb 0.00 in0.0 mm 0.00 in0.0 mm 0.04 in1.0 mm
03:50 PM 59.5°F15.3°C 55.0°F12.8°C 85% 12.1 mph WSW19.5 kmh WSW 18.3 mph29.5 kmh 29.84 in1010.5 mb 0.00 in0.0 mm 0.00 in0.0 mm 0.04 in1.0 mm
04:00 PM 59.5°F15.3°C 55.4°F13.0°C 86% 13.6 mph WSW21.9 kmh WSW 20.6 mph33.2 kmh 29.83 in1010.2 mb 0.00 in0.0 mm 0.00 in0.0 mm 0.04 in1.0 mm
04:10 PM 59.4°F15.2°C 55.2°F12.9°C 86% 7.6 mph WSW12.2 kmh WSW 19.7 mph31.7 kmh 29.84 in1010.5 mb 0.00 in0.0 mm 0.00 in0.0 mm 0.04 in1.0 mm
04:20 PM 59.7°F15.4°C 55.2°F12.9°C 85% 11.4 mph WNW18.3 kmh WNW 19.7 mph31.7 kmh 29.83 in1010.2 mb 0.00 in0.0 mm 0.00 in0.0 mm 0.04 in1.0 mm
04:30 PM 59.9°F15.5°C 55.4°F13.0°C 85% 9.8 mph SW15.8 kmh SW 19.7 mph31.7 kmh 29.83 in1010.2 mb 0.00 in0.0 mm 0.00 in0.0 mm 0.04 in1.0 mm
04:40 PM 59.5°F15.3°C 53.0°F11.7°C 79% 9.8 mph WSW15.8 kmh WSW 25.1 mph40.4 kmh 29.84 in1010.5 mb 0.00 in0.0 mm 0.00 in0.0 mm 0.04 in1.0 mm
04:50 PM 59.5°F15.3°C 51.6°F10.9°C 75% 14.5 mph W23.3 kmh W 20.6 mph33.2 kmh 29.84 in1010.5 mb 0.00 in0.0 mm 0.00 in0.0 mm 0.04 in1.0 mm
05:00 PM 59.4°F15.2°C 53.2°F11.8°C 80% 9.8 mph WSW15.8 kmh WSW 22.8 mph36.7 kmh 29.84 in1010.5 mb 0.00 in0.0 mm 0.00 in0.0 mm 0.04 in1.0 mm
05:10 PM 59.2°F15.1°C 54.4°F12.4°C 84% 12.1 mph WSW19.5 kmh WSW 20.6 mph33.2 kmh 29.85 in1010.8 mb 0.00 in0.0 mm 0.00 in0.0 mm 0.04 in1.0 mm
05:20 PM 58.3°F14.6°C 54.1°F12.3°C 86% 15.9 mph W25.6 kmh W 22.8 mph36.7 kmh 29.85 in1010.8 mb 0.00 in0.0 mm 0.00 in0.0 mm 0.04 in1.0 mm
05:30 PM 58.8°F14.9°C 52.3°F11.3°C 79% 11.4 mph WSW18.3 kmh WSW 25.9 mph41.7 kmh 29.86 in1011.2 mb 0.00 in0.0 mm 0.00 in0.0 mm 0.04 in1.0 mm
05:40 PM 58.8°F14.9°C 53.0°F11.7°C 81% 17.4 mph WSW28.0 kmh WSW 28.9 mph46.5 kmh 29.86 in1011.2 mb 0.00 in0.0 mm 0.00 in0.0 mm 0.04 in1.0 mm
05:50 PM 58.3°F14.6°C 53.8°F12.1°C 85% 13.0 mph WSW20.9 kmh WSW 24.4 mph39.3 kmh 29.86 in1011.2 mb 0.00 in0.0 mm 0.00 in0.0 mm 0.04 in1.0 mm
06:00 PM 57.9°F14.4°C 53.4°F11.9°C 85% 17.4 mph W28.0 kmh W 29.8 mph48.0 kmh 29.87 in1011.5 mb 0.00 in0.0 mm 0.00 in0.0 mm 0.04 in1.0 mm
06:10 PM 58.1°F14.5°C 53.3°F11.8°C 84% 15.9 mph WSW25.6 kmh WSW 28.9 mph46.5 kmh 29.88 in1011.9 mb 0.00 in0.0 mm 0.00 in0.0 mm 0.04 in1.0 mm
06:20 PM 58.3°F14.6°C 53.5°F11.9°C 84% 14.5 mph NW23.3 kmh NW 29.8 mph48.0 kmh 29.88 in1011.9 mb 0.00 in0.0 mm 0.00 in0.0 mm 0.04 in1.0 mm
06:30 PM 57.6°F14.2°C 53.4°F11.9°C 86% 12.1 mph W19.5 kmh W 30.4 mph48.9 kmh 29.89 in1012.2 mb 0.00 in0.0 mm 0.00 in0.0 mm 0.04 in1.0 mm
06:40 PM 56.8°F13.8°C 53.9°F12.2°C 90% 13.6 mph WSW21.9 kmh WSW 27.3 mph43.9 kmh 29.89 in1012.2 mb 0.00 in0.0 mm 0.00 in0.0 mm 0.04 in1.0 mm
06:50 PM 57.7°F14.3°C 52.0°F11.1°C 81% 19.7 mph W31.7 kmh W 28.9 mph46.5 kmh 29.90 in1012.5 mb 0.00 in0.0 mm 0.00 in0.0 mm 0.04 in1.0 mm
07:00 PM 58.3°F14.6°C 51.5°F10.8°C 78% 15.9 mph WSW25.6 kmh WSW 28.2 mph45.4 kmh 29.91 in1012.9 mb 0.00 in0.0 mm 0.00 in0.0 mm 0.04 in1.0 mm
07:10 PM 58.3°F14.6°C 53.2°F11.8°C 83% 19.7 mph SW31.7 kmh SW 29.8 mph48.0 kmh 29.91 in1012.9 mb 0.00 in0.0 mm 0.00 in0.0 mm 0.04 in1.0 mm
07:20 PM 54.9°F12.7°C 52.6°F11.4°C 92% 14.5 mph SW23.3 kmh SW 29.8 mph48.0 kmh 29.92 in1013.2 mb 0.06 in1.5 mm 0.36 in9.1 mm 0.09 in2.3 mm
07:30 PM 54.9°F12.7°C 53.5°F11.9°C 95% 10.7 mph WSW17.2 kmh WSW 25.9 mph41.7 kmh 29.93 in1013.5 mb 0.07 in1.8 mm 0.06 in1.5 mm 0.11 in2.8 mm
07:40 PM 54.9°F12.7°C 52.6°F11.4°C 92% 15.9 mph WSW25.6 kmh WSW 27.3 mph43.9 kmh 29.93 in1013.5 mb 0.07 in1.8 mm 0.00 in0.0 mm 0.11 in2.8 mm
07:50 PM 54.5°F12.5°C 52.2°F11.2°C 92% 15.9 mph WSW25.6 kmh WSW 25.9 mph41.7 kmh 29.94 in1013.9 mb 0.09 in2.3 mm 0.12 in3.0 mm 0.13 in3.3 mm
08:00 PM 54.1°F12.3°C 53.3°F11.8°C 97% 9.8 mph WSW15.8 kmh WSW 25.9 mph41.7 kmh 29.95 in1014.2 mb 0.17 in4.3 mm 0.10 in2.5 mm 0.20 in5.1 mm
08:20 PM 54.9°F12.7°C 54.0°F12.2°C 97% 12.1 mph WSW19.5 kmh WSW 25.1 mph40.4 kmh 29.96 in1014.6 mb 0.15 in3.8 mm 0.00 in0.0 mm 0.25 in6.4 mm
08:30 PM 56.1°F13.4°C 52.6°F11.4°C 88% 14.5 mph SW23.3 kmh SW 25.9 mph41.7 kmh 29.97 in1014.9 mb 0.14 in3.6 mm 0.00 in0.0 mm 0.25 in6.4 mm
08:40 PM 56.3°F13.5°C 51.9°F11.1°C 85% 16.8 mph WSW27.0 kmh WSW 31.1 mph50.1 kmh 29.97 in1014.9 mb 0.14 in3.6 mm 0.00 in0.0 mm 0.25 in6.4 mm
08:50 PM 56.5°F13.6°C 50.7°F10.4°C 81% 17.4 mph SW28.0 kmh SW 28.2 mph45.4 kmh 29.98 in1015.2 mb 0.05 in1.3 mm 0.00 in0.0 mm 0.25 in6.4 mm
09:00 PM 56.5°F13.6°C 50.4°F10.2°C 80% 13.0 mph W20.9 kmh W 25.9 mph41.7 kmh 29.98 in1015.2 mb 0.01 in0.3 mm 0.00 in0.0 mm 0.25 in6.4 mm
09:20 PM 56.7°F13.7°C 49.9°F9.9°C 78% 14.5 mph WSW23.3 kmh WSW 25.9 mph41.7 kmh 29.99 in1015.6 mb 0.00 in0.0 mm 0.00 in0.0 mm 0.25 in6.4 mm
09:30 PM 56.7°F13.7°C 49.2°F9.6°C 76% 19.0 mph SW30.6 kmh SW 28.2 mph45.4 kmh 30.00 in1015.9 mb 0.00 in0.0 mm 0.00 in0.0 mm 0.25 in6.4 mm
09:40 PM 56.5°F13.6°C 48.7°F9.3°C 75% 14.5 mph SW23.3 kmh SW 28.2 mph45.4 kmh 30.00 in1015.9 mb 0.00 in0.0 mm 0.00 in0.0 mm 0.25 in6.4 mm
09:50 PM 56.5°F13.6°C 47.9°F8.8°C 73% 14.5 mph SW23.3 kmh SW 26.6 mph42.8 kmh 30.01 in1016.3 mb 0.00 in0.0 mm 0.00 in0.0 mm 0.25 in6.4 mm
10:00 PM 56.5°F13.6°C 47.6°F8.7°C 72% 11.4 mph SW18.3 kmh SW 23.5 mph37.8 kmh 30.01 in1016.3 mb 0.00 in0.0 mm 0.00 in0.0 mm 0.25 in6.4 mm
10:10 PM 56.3°F13.5°C 48.5°F9.2°C 75% 13.6 mph WSW21.9 kmh WSW 21.3 mph34.3 kmh 30.01 in1016.3 mb 0.00 in0.0 mm 0.00 in0.0 mm 0.25 in6.4 mm
10:20 PM 56.1°F13.4°C 47.6°F8.7°C 73% 9.8 mph SW15.8 kmh SW 20.6 mph33.2 kmh 30.01 in1016.3 mb 0.00 in0.0 mm 0.00 in0.0 mm 0.25 in6.4 mm
10:30 PM 56.1°F13.4°C 47.6°F8.7°C 73% 13.6 mph WSW21.9 kmh WSW 22.1 mph35.6 kmh 30.01 in1016.3 mb 0.00 in0.0 mm 0.00 in0.0 mm 0.25 in6.4 mm
10:40 PM 55.9°F13.3°C 47.8°F8.8°C 74% 9.8 mph SW15.8 kmh SW 21.3 mph34.3 kmh 30.01 in1016.3 mb 0.00 in0.0 mm 0.00 in0.0 mm 0.25 in6.4 mm
10:50 PM 55.6°F13.1°C 47.8°F8.8°C 75% 13.6 mph SW21.9 kmh SW 19.0 mph30.6 kmh 30.02 in1016.6 mb 0.00 in0.0 mm 0.00 in0.0 mm 0.25 in6.4 mm
11:00 PM 55.6°F13.1°C 47.8°F8.8°C 75% 7.6 mph SW12.2 kmh SW 20.6 mph33.2 kmh 30.02 in1016.6 mb 0.00 in0.0 mm 0.00 in0.0 mm 0.20 in5.1 mm
11:10 PM 55.6°F13.1°C 47.4°F8.6°C 74% 13.6 mph WSW21.9 kmh WSW 16.8 mph27.0 kmh 30.02 in1016.6 mb 0.00 in0.0 mm 0.00 in0.0 mm 0.20 in5.1 mm
11:20 PM 55.6°F13.1°C 46.7°F8.2°C 72% 13.0 mph WSW20.9 kmh WSW 20.6 mph33.2 kmh 30.02 in1016.6 mb 0.00 in0.0 mm 0.00 in0.0 mm 0.20 in5.1 mm
11:30 PM 55.6°F13.1°C 47.4°F8.6°C 74% 10.7 mph SW17.2 kmh SW 16.8 mph27.0 kmh 30.02 in1016.6 mb 0.00 in0.0 mm 0.00 in0.0 mm 0.20 in5.1 mm
11:40 PM 55.4°F13.0°C 46.9°F8.3°C 73% 6.0 mph WSW9.7 kmh WSW 17.4 mph28.0 kmh 30.02 in1016.6 mb 0.00 in0.0 mm 0.00 in0.0 mm 0.20 in5.1 mm
11:50 PM 55.0°F12.8°C 46.6°F8.1°C 73% 14.5 mph WSW23.3 kmh WSW 19.7 mph31.7 kmh 30.03 in1016.9 mb 0.00 in0.0 mm 0.00 in0.0 mm 0.20 in5.1 mm